TimeCDT,TemperatureF,Dew PointF,Humidity,Sea Level PressureIn,VisibilityMPH,Wind Direction,Wind SpeedMPH,Gust SpeedMPH,PrecipitationIn,Events,Conditions,WindDirDegrees,DateUTC
12:52 AM,61.0,26.1,26,30.13,10.0,ESE,3.5,-,N/A,,Clear,120,2011-10-01 05:52:00
1:52 AM,59.0,28.0,31,30.14,10.0,Calm,Calm,-,N/A,,Clear,0,2011-10-01 06:52:00
2:52 AM,60.1,30.9,33,30.14,10.0,Calm,Calm,-,N/A,,Clear,0,2011-10-01 07:52:00
3:52 AM,57.9,32.0,37,30.14,10.0,Calm,Calm,-,N/A,,Clear,0,2011-10-01 08:52:00
4:52 AM,53.1,28.9,40,30.15,10.0,Calm,Calm,-,N/A,,Clear,0,2011-10-01 09:52:00
5:52 AM,54.0,28.0,37,30.16,10.0,Calm,Calm,-,N/A,,Clear,0,2011-10-01 10:52:00
6:52 AM,55.0,28.0,35,30.17,10.0,Calm,Calm,-,N/A,,Clear,0,2011-10-01 11:52:00
7:52 AM,53.1,28.9,40,30.19,10.0,SSW,3.5,-,N/A,,Clear,200,2011-10-01 12:52:00
8:52 AM,59.0,32.0,36,30.20,10.0,Calm,Calm,-,N/A,,Clear,0,2011-10-01 13:52:00
9:52 AM,70.0,30.9,24,30.21,10.0,SE,8.1,-,N/A,,Clear,130,2011-10-01 14:52:00
10:52 AM,73.9,30.9,21,30.21,10.0,ESE,5.8,-,N/A,,Clear,120,2011-10-01 15:52:00
11:52 AM,77.0,28.0,17,30.20,10.0,SSE,9.2,-,N/A,,Clear,150,2011-10-01 16:52:00
12:52 PM,80.1,26.1,14,30.18,10.0,Calm,Calm,-,N/A,,Clear,0,2011-10-01 17:52:00
1:52 PM,82.0,27.0,13,30.16,10.0,Calm,Calm,-,N/A,,Clear,0,2011-10-01 18:52:00
2:52 PM,84.0,28.0,13,30.12,10.0,East,10.4,-,N/A,,Clear,90,2011-10-01 19:52:00
3:52 PM,84.0,28.9,14,30.11,10.0,East,5.8,-,N/A,,Clear,90,2011-10-01 20:52:00
4:52 PM,84.9,28.9,13,30.10,10.0,East,8.1,-,N/A,,Clear,80,2011-10-01 21:52:00
5:52 PM,84.0,28.9,14,30.09,10.0,East,6.9,-,N/A,,Clear,90,2011-10-01 22:52:00
6:52 PM,82.0,28.9,14,30.09,10.0,East,8.1,-,N/A,,Clear,80,2011-10-01 23:52:00
7:52 PM,77.0,30.0,18,30.10,10.0,East,4.6,-,N/A,,Clear,100,2011-10-02 00:52:00
8:52 PM,72.0,30.0,21,30.11,10.0,East,9.2,-,N/A,,Clear,100,2011-10-02 01:52:00
9:52 PM,69.1,30.0,23,30.12,10.0,East,6.9,-,N/A,,Clear,100,2011-10-02 02:52:00
10:52 PM,64.9,30.0,27,30.13,10.0,SE,4.6,-,N/A,,Clear,140,2011-10-02 03:52:00
11:52 PM,61.0,30.9,32,30.13,10.0,SE,5.8,-,N/A,,Clear,140,2011-10-02 04:52:00